createdAt,value
2023-03-22T00:01:15.780Z,4.03
2023-03-22T00:03:42.407Z,4.18
2023-03-22T00:06:09.958Z,4.68
2023-03-22T00:08:36.944Z,5.32
2023-03-22T00:11:04.223Z,4.63
2023-03-22T00:13:33.039Z,3.92
2023-03-22T00:16:02.776Z,4.43
2023-03-22T00:18:30.047Z,4.43
2023-03-22T00:20:58.936Z,4.47
2023-03-22T00:23:26.337Z,3.85
2023-03-22T00:25:54.949Z,5.05
2023-03-22T00:28:22.014Z,4.90
2023-03-22T00:30:57.604Z,3.90
2023-03-22T00:33:24.965Z,5.20
2023-03-22T00:35:56.689Z,4.50
2023-03-22T00:38:29.921Z,4.20
2023-03-22T00:41:22.901Z,4.72
2023-03-22T00:43:50.421Z,4.45
2023-03-22T00:46:19.226Z,5.13
2023-03-22T00:48:45.774Z,4.35
2023-03-22T00:51:13.448Z,3.92
2023-03-22T00:53:43.006Z,4.07
2023-03-22T00:56:13.829Z,3.60
2023-03-22T00:58:40.938Z,4.03
2023-03-22T01:01:08.052Z,3.67
2023-03-22T01:03:35.065Z,3.90
2023-03-22T01:06:01.936Z,3.70
2023-03-22T01:08:33.157Z,3.88
2023-03-22T01:11:01.273Z,3.28
2023-03-22T01:13:28.847Z,3.88
2023-03-22T01:15:57.731Z,3.47
2023-03-22T01:18:24.492Z,3.88
2023-03-22T01:20:52.352Z,3.90
2023-03-22T01:23:18.865Z,3.92
2023-03-22T01:25:45.363Z,3.63
2023-03-22T01:28:11.877Z,3.63
2023-03-22T01:30:42.109Z,3.25
2023-03-22T01:33:10.882Z,3.08
2023-03-22T01:35:37.786Z,3.58
2023-03-22T01:38:04.553Z,3.70
2023-03-22T01:40:32.783Z,3.17
2023-03-22T01:42:59.774Z,3.30
2023-03-22T01:45:40.840Z,2.90
2023-03-22T01:48:14.297Z,2.50
2023-03-22T01:50:45.758Z,3.13
2023-03-22T01:53:15.482Z,2.30
2023-03-22T01:55:42.503Z,2.50
2023-03-22T01:58:09.069Z,2.00
2023-03-22T02:00:36.843Z,1.98
2023-03-22T02:03:05.500Z,2.42
2023-03-22T02:05:34.530Z,2.72
2023-03-22T02:08:01.789Z,2.20
2023-03-22T02:10:29.871Z,2.67
2023-03-22T02:13:38.921Z,2.20
2023-03-22T02:16:23.466Z,2.15
2023-03-22T02:18:56.010Z,2.10
2023-03-22T02:21:41.219Z,2.33
2023-03-22T02:24:39.300Z,2.38
2023-03-22T02:27:36.803Z,2.22
2023-03-22T02:30:41.206Z,2.67
2023-03-22T02:33:28.078Z,2.10
2023-03-22T02:36:07.620Z,2.40
2023-03-22T02:39:04.506Z,2.33
2023-03-22T02:41:47.096Z,2.20
2023-03-22T02:44:25.539Z,2.25
2023-03-22T02:47:08.043Z,2.33
2023-03-22T02:49:52.103Z,2.28
2023-03-22T02:52:51.599Z,2.35
2023-03-22T02:55:33.609Z,2.92
2023-03-22T02:58:18.142Z,3.13
2023-03-22T03:00:47.014Z,2.60
2023-03-22T03:03:18.272Z,2.65
2023-03-22T03:05:54.949Z,2.65
2023-03-22T03:08:23.762Z,3.13
2023-03-22T03:10:51.543Z,2.65
2023-03-22T03:13:19.457Z,2.67
2023-03-22T03:15:57.423Z,2.78
2023-03-22T03:18:36.188Z,2.60
2023-03-22T03:21:11.396Z,2.85
2023-03-22T03:23:49.619Z,2.55
2023-03-22T03:26:37.294Z,2.67
2023-03-22T03:29:15.492Z,2.70
2023-03-22T03:32:10.521Z,2.53
2023-03-22T03:34:39.649Z,2.63
2023-03-22T03:37:10.495Z,2.78
2023-03-22T03:39:43.080Z,2.80
2023-03-22T03:42:13.629Z,2.53
2023-03-22T03:44:40.908Z,3.70
2023-03-22T03:47:09.283Z,2.92
2023-03-22T03:49:36.008Z,2.50
2023-03-22T03:52:05.116Z,2.88
2023-03-22T03:54:32.036Z,2.87
2023-03-22T03:56:58.646Z,2.67
2023-03-22T03:59:25.117Z,3.00
2023-03-22T04:01:52.573Z,3.20
2023-03-22T04:04:26.903Z,2.73
2023-03-22T04:07:01.459Z,2.70
2023-03-22T04:09:33.520Z,2.37
2023-03-22T04:12:00.276Z,3.07
2023-03-22T04:14:27.181Z,2.33
2023-03-22T04:16:54.979Z,2.55
2023-03-22T04:19:22.290Z,2.40
2023-03-22T04:21:48.965Z,2.20
2023-03-22T04:24:15.517Z,2.87
2023-03-22T04:26:41.942Z,2.83
2023-03-22T04:29:08.435Z,3.23
2023-03-22T04:31:39.095Z,2.63
2023-03-22T04:34:06.898Z,2.83
2023-03-22T04:36:38.760Z,2.55
2023-03-22T04:39:08.700Z,3.65
2023-03-22T04:41:36.026Z,2.70
2023-03-22T04:44:03.827Z,3.63
2023-03-22T04:46:30.982Z,2.83
2023-03-22T04:48:57.526Z,3.03
2023-03-22T04:51:25.249Z,2.50
2023-03-22T04:53:52.198Z,3.80
2023-03-22T04:56:18.965Z,3.43
2023-03-22T04:58:45.787Z,2.97
2023-03-22T05:01:15.344Z,3.37
2023-03-22T05:03:43.050Z,3.50
2023-03-22T05:06:13.317Z,3.25
2023-03-22T05:08:41.577Z,3.40
2023-03-22T05:11:13.503Z,3.55
2023-03-22T05:13:40.728Z,3.58
2023-03-22T05:16:08.175Z,3.35
2023-03-22T05:18:37.910Z,3.27
2023-03-22T05:21:06.690Z,3.00
2023-03-22T05:23:33.202Z,2.80
2023-03-22T05:26:01.603Z,3.17
2023-03-22T05:28:28.441Z,2.87
2023-03-22T05:30:57.099Z,3.47
2023-03-22T05:33:23.758Z,2.97
2023-03-22T05:35:51.169Z,3.40
2023-03-22T05:38:18.033Z,3.47
2023-03-22T05:40:45.179Z,2.97
2023-03-22T05:43:12.700Z,3.13
2023-03-22T05:45:39.597Z,3.30
2023-03-22T05:48:06.297Z,2.83
2023-03-22T05:50:33.217Z,2.77
2023-03-22T05:53:00.523Z,3.10
2023-03-22T05:55:27.581Z,2.30
2023-03-22T05:57:54.756Z,2.50
2023-03-22T06:00:23.738Z,3.00
2023-03-22T06:02:52.377Z,2.67
2023-03-22T06:05:21.034Z,3.10
2023-03-22T06:07:47.626Z,3.17
2023-03-22T06:10:15.470Z,3.40
2023-03-22T06:12:42.144Z,3.00
2023-03-22T06:15:09.481Z,3.10
2023-03-22T06:17:36.495Z,3.40
2023-03-22T06:20:09.372Z,2.90
2023-03-22T06:22:35.953Z,2.90
2023-03-22T06:25:02.750Z,3.30
2023-03-22T06:27:29.557Z,3.70
2023-03-22T06:29:56.087Z,3.13
2023-03-22T06:32:26.767Z,4.13
2023-03-22T06:34:54.774Z,3.50
2023-03-22T06:37:22.256Z,3.53
2023-03-22T06:39:49.092Z,3.03
2023-03-22T06:42:15.762Z,3.80
2023-03-22T06:44:43.979Z,3.10
2023-03-22T06:47:11.733Z,3.67
2023-03-22T06:49:38.638Z,2.70
2023-03-22T06:52:05.421Z,3.47
2023-03-22T06:54:31.865Z,3.40
2023-03-22T06:56:58.301Z,3.27
2023-03-22T06:59:24.737Z,3.55
2023-03-22T07:01:51.422Z,3.13
2023-03-22T07:04:18.114Z,3.42
2023-03-22T07:06:44.740Z,3.78
2023-03-22T07:09:11.421Z,3.22
2023-03-22T07:11:37.933Z,3.33
2023-03-22T07:14:04.461Z,3.70
2023-03-22T07:16:30.978Z,3.25
2023-03-22T07:18:57.522Z,2.85
2023-03-22T07:21:24.050Z,3.83
2023-03-22T07:23:50.599Z,2.90
2023-03-22T07:26:17.063Z,3.55
2023-03-22T07:28:44.697Z,2.70
2023-03-22T07:31:15.287Z,2.45
2023-03-22T07:33:41.917Z,3.17
2023-03-22T07:36:09.257Z,2.70
2023-03-22T07:38:36.065Z,2.90
2023-03-22T07:41:02.928Z,2.80
2023-03-22T07:43:29.493Z,2.70
2023-03-22T07:45:56.602Z,2.70
2023-03-22T07:48:23.710Z,2.42
2023-03-22T07:50:55.770Z,3.65
2023-03-22T07:53:22.274Z,5.40
2023-03-22T07:55:48.794Z,4.05
2023-03-22T07:58:15.241Z,4.30
2023-03-22T08:00:44.870Z,4.20
2023-03-22T08:03:14.688Z,5.53
2023-03-22T08:05:43.612Z,4.80
2023-03-22T08:08:13.655Z,4.22
2023-03-22T08:10:41.885Z,3.72
2023-03-22T08:13:08.508Z,3.65
2023-03-22T08:15:37.652Z,3.33
2023-03-22T08:18:04.349Z,3.75
2023-03-22T08:20:30.876Z,3.10
2023-03-22T08:22:57.554Z,3.10
2023-03-22T08:25:24.625Z,3.25
2023-03-22T08:27:51.645Z,3.00
2023-03-22T08:30:18.488Z,3.42
2023-03-22T08:32:45.573Z,2.50
2023-03-22T08:35:13.128Z,2.75
2023-03-22T08:37:42.496Z,2.53
2023-03-22T08:40:12.600Z,3.50
2023-03-22T08:42:41.954Z,3.95
2023-03-22T08:45:13.391Z,3.50
2023-03-22T08:47:42.991Z,3.78
2023-03-22T08:50:15.136Z,2.60
2023-03-22T08:52:44.940Z,2.75
2023-03-22T08:55:17.436Z,2.67
2023-03-22T08:57:50.304Z,3.05
2023-03-22T09:00:25.626Z,2.60
2023-03-22T09:02:52.234Z,2.13
2023-03-22T09:05:18.942Z,2.30
2023-03-22T09:07:45.778Z,2.10
2023-03-22T09:10:16.944Z,2.50
2023-03-22T09:12:43.476Z,2.40
2023-03-22T09:15:14.797Z,2.15
2023-03-22T09:17:45.756Z,2.80
2023-03-22T09:20:15.422Z,2.70
2023-03-22T09:22:44.694Z,2.42
2023-03-22T09:25:14.744Z,2.75
2023-03-22T09:27:44.553Z,2.50
2023-03-22T09:30:13.873Z,2.65
2023-03-22T09:32:43.024Z,2.58
2023-03-22T09:35:11.711Z,2.58
2023-03-22T09:37:38.936Z,2.80
2023-03-22T09:40:07.378Z,4.63
2023-03-22T09:42:38.589Z,4.57
2023-03-22T09:45:12.842Z,4.47
2023-03-22T09:47:54.789Z,4.85
2023-03-22T09:50:25.011Z,5.18
2023-03-22T09:52:52.814Z,4.85
2023-03-22T09:55:25.788Z,4.20
2023-03-22T09:58:07.666Z,4.07
2023-03-22T10:01:02.920Z,4.10
2023-03-22T10:04:03.176Z,3.83
2023-03-22T10:06:31.037Z,4.00
2023-03-22T10:09:14.513Z,3.83
2023-03-22T10:11:52.486Z,4.28
2023-03-22T10:14:31.088Z,3.75
2023-03-22T10:17:03.790Z,4.00
2023-03-22T10:19:35.664Z,3.80
2023-03-22T10:22:04.357Z,3.88
2023-03-22T10:24:36.573Z,4.20
2023-03-22T10:27:06.818Z,3.88
2023-03-22T10:29:42.030Z,3.90
2023-03-22T10:32:17.392Z,3.90
2023-03-22T10:34:44.528Z,3.35
2023-03-22T10:37:20.531Z,3.67
2023-03-22T10:39:52.383Z,3.63
2023-03-22T10:42:29.970Z,4.30
2023-03-22T10:45:01.968Z,3.83
2023-03-22T10:47:40.625Z,3.42
2023-03-22T10:50:36.605Z,3.97
2023-03-22T10:53:15.206Z,3.40
2023-03-22T10:55:44.852Z,3.50
2023-03-22T10:58:22.584Z,3.50
2023-03-22T11:00:54.322Z,3.85
2023-03-22T11:03:37.584Z,3.75
2023-03-22T11:06:13.393Z,3.10
2023-03-22T11:08:47.828Z,3.40
2023-03-22T11:11:24.969Z,3.00
2023-03-22T11:13:55.692Z,3.55
2023-03-22T11:16:23.745Z,3.10
2023-03-22T11:18:51.137Z,3.38
2023-03-22T11:21:21.335Z,3.28
2023-03-22T11:23:57.642Z,3.00
2023-03-22T11:26:31.616Z,3.20
2023-03-22T11:29:21.569Z,3.20
2023-03-22T11:31:57.441Z,3.03
2023-03-22T11:34:29.916Z,3.50
2023-03-22T11:37:00.436Z,3.70
2023-03-22T11:39:29.429Z,3.40
2023-03-22T11:42:06.309Z,3.42
2023-03-22T11:44:35.516Z,3.33
2023-03-22T11:47:04.235Z,3.58
2023-03-22T11:49:40.407Z,3.22
2023-03-22T11:52:10.213Z,3.38
2023-03-22T11:54:39.107Z,3.25
2023-03-22T11:57:16.222Z,3.28
2023-03-22T12:00:11.347Z,3.10
2023-03-22T12:02:47.314Z,3.00
2023-03-22T12:05:16.354Z,3.10
2023-03-22T12:07:43.401Z,3.60
2023-03-22T12:10:16.941Z,3.50
2023-03-22T12:12:51.457Z,3.30
2023-03-22T12:15:22.333Z,2.70
2023-03-22T12:18:12.611Z,2.60
2023-03-22T12:20:58.300Z,3.00
2023-03-22T12:23:30.669Z,2.70
2023-03-22T12:26:12.440Z,2.90
2023-03-22T12:28:47.484Z,2.90
2023-03-22T12:31:24.219Z,3.17
2023-03-22T12:33:54.845Z,2.75
2023-03-22T12:36:28.174Z,3.10
2023-03-22T12:38:57.397Z,2.80
2023-03-22T12:41:34.576Z,2.70
2023-03-22T12:44:10.674Z,2.67
2023-03-22T12:46:53.610Z,2.90
2023-03-22T12:49:46.904Z,3.05
2023-03-22T12:52:18.962Z,2.38
2023-03-22T12:54:51.104Z,2.92
2023-03-22T12:57:18.668Z,2.80
2023-03-22T12:59:52.976Z,3.10
2023-03-22T13:02:27.581Z,3.03
2023-03-22T13:04:57.321Z,3.95
2023-03-22T13:07:39.128Z,3.70
2023-03-22T13:10:36.306Z,2.97
2023-03-22T13:13:38.503Z,3.10
2023-03-22T13:16:11.098Z,3.03
2023-03-22T13:18:58.285Z,3.10
2023-03-22T13:21:27.476Z,2.97
2023-03-22T13:24:00.512Z,2.90
2023-03-22T13:26:46.041Z,3.45
2023-03-22T13:29:25.235Z,3.28
2023-03-22T13:31:51.796Z,2.75
2023-03-22T13:34:36.206Z,2.80
2023-03-22T13:37:05.304Z,2.95
2023-03-22T13:39:34.676Z,3.50
2023-03-22T13:42:37.967Z,2.88
2023-03-22T13:45:09.922Z,2.92
2023-03-22T13:47:43.902Z,2.55
2023-03-22T13:50:32.285Z,2.50
2023-03-22T13:53:05.056Z,2.45
2023-03-22T13:55:58.477Z,2.60
2023-03-22T13:58:36.259Z,2.53
2023-03-22T14:01:13.569Z,3.00
2023-03-22T14:03:45.755Z,3.00
2023-03-22T14:06:25.578Z,3.22
2023-03-22T14:08:58.703Z,3.30
2023-03-22T14:11:46.037Z,2.78
2023-03-22T14:14:27.240Z,3.10
2023-03-22T14:17:20.313Z,2.97
2023-03-22T14:19:50.258Z,2.75
